createdAt,value
2022-12-13T00:01:57.742Z,77881.59
2022-12-13T00:04:25.011Z,77879.69
2022-12-13T00:06:53.891Z,77889.31
2022-12-13T00:09:20.730Z,77889.31
2022-12-13T00:11:48.004Z,77902.81
2022-12-13T00:14:14.709Z,77895.09
2022-12-13T00:16:45.654Z,77900.88
2022-12-13T00:19:12.536Z,77897.03
2022-12-13T00:21:39.420Z,77891.25
2022-12-13T00:24:06.258Z,77885.47
2022-12-13T00:26:33.010Z,77877.75
2022-12-13T00:29:03.927Z,77871.97
2022-12-13T00:34:20.575Z,77877.75
2022-12-13T00:36:47.137Z,77871.97
2022-12-13T00:39:14.343Z,77879.69
2022-12-13T00:41:41.632Z,77885.47
2022-12-13T00:44:09.790Z,77885.47
2022-12-13T00:46:36.279Z,77889.31
2022-12-13T00:49:02.958Z,77885.47
2022-12-13T00:51:30.635Z,77889.31
2022-12-13T00:53:57.518Z,77895.09
2022-12-13T00:56:25.731Z,77893.19
2022-12-13T00:58:53.033Z,77897.03
2022-12-13T01:01:21.459Z,77897.03
2022-12-13T01:03:48.149Z,77900.88
2022-12-13T01:06:19.399Z,77904.75
2022-12-13T01:08:46.665Z,77902.81
2022-12-13T01:11:13.752Z,77908.59
2022-12-13T01:13:40.742Z,77904.75
2022-12-13T01:16:08.836Z,77902.81
2022-12-13T01:18:35.761Z,77908.59
2022-12-13T01:21:04.809Z,77914.38
2022-12-13T01:23:31.389Z,77920.16
2022-12-13T01:25:58.018Z,77925.94
2022-12-13T01:28:25.108Z,77931.72
2022-12-13T01:30:55.886Z,77941.38
2022-12-13T01:33:22.974Z,77941.38
2022-12-13T01:35:49.542Z,77939.44
2022-12-13T01:38:16.391Z,77925.94
2022-12-13T01:40:58.806Z,77927.88
2022-12-13T01:43:49.338Z,77916.31
2022-12-13T01:46:17.121Z,77920.16
2022-12-13T01:48:50.370Z,77924.03
2022-12-13T01:51:19.243Z,77920.16
2022-12-13T01:53:46.930Z,77927.88
2022-12-13T01:56:18.182Z,77935.59
2022-12-13T01:58:45.758Z,77931.72
2022-12-13T02:01:12.407Z,77939.44
2022-12-13T02:03:39.084Z,77949.09
2022-12-13T02:06:05.651Z,77945.22
2022-12-13T02:08:35.615Z,77954.88
2022-12-13T02:11:03.269Z,77964.50
2022-12-13T02:13:29.948Z,77964.50
2022-12-13T02:15:59.601Z,77966.44
2022-12-13T02:18:38.216Z,77966.44
2022-12-13T02:21:19.072Z,77964.50
2022-12-13T02:24:09.088Z,77970.28
2022-12-13T02:26:42.111Z,77968.34
2022-12-13T02:29:30.805Z,77974.13
2022-12-13T02:32:07.173Z,77979.94
2022-12-13T02:34:36.743Z,77993.41
2022-12-13T02:37:21.399Z,78006.91
2022-12-13T02:39:51.214Z,78016.56
2022-12-13T02:42:50.236Z,78020.41
2022-12-13T02:45:21.030Z,78024.25
2022-12-13T02:47:49.746Z,78022.34
2022-12-13T02:50:16.352Z,78024.25
2022-12-13T02:52:46.493Z,78018.47
2022-12-13T02:55:14.342Z,78020.41
2022-12-13T02:57:42.245Z,78024.25
2022-12-13T03:00:09.260Z,78039.69
2022-12-13T03:02:56.804Z,78047.41
2022-12-13T03:05:41.855Z,78047.41
2022-12-13T03:08:14.378Z,78058.97
2022-12-13T03:11:07.276Z,78062.81
2022-12-13T03:13:52.770Z,78074.38
2022-12-13T03:16:37.863Z,78074.38
2022-12-13T03:19:06.235Z,78085.97
2022-12-13T03:21:58.827Z,78087.88
2022-12-13T03:24:25.454Z,78087.88
2022-12-13T03:26:52.343Z,78087.88
2022-12-13T03:29:23.586Z,78093.66
2022-12-13T03:31:51.272Z,78097.53
2022-12-13T03:34:22.820Z,78101.38
2022-12-13T03:36:50.296Z,78112.94
2022-12-13T03:39:17.026Z,78120.66
2022-12-13T03:41:43.932Z,78128.38
2022-12-13T03:44:10.560Z,78143.78
2022-12-13T03:46:37.125Z,78143.78
2022-12-13T03:49:03.937Z,78155.34
2022-12-13T03:51:30.674Z,78155.34
2022-12-13T03:53:57.261Z,78166.94
2022-12-13T03:56:23.957Z,78178.50
2022-12-13T03:58:50.494Z,78176.56
2022-12-13T04:01:17.403Z,78178.50
2022-12-13T04:03:46.341Z,78184.28
2022-12-13T04:06:22.822Z,78166.94
2022-12-13T04:08:51.284Z,78166.94
2022-12-13T04:11:36.613Z,78180.44
2022-12-13T04:14:10.287Z,78195.84
2022-12-13T04:16:36.917Z,78201.63
2022-12-13T04:19:03.613Z,78203.56
2022-12-13T04:21:30.158Z,78209.34
2022-12-13T04:23:56.924Z,78205.50
2022-12-13T04:26:28.300Z,78211.28
2022-12-13T04:28:55.023Z,78209.34
2022-12-13T04:31:21.771Z,78224.78
2022-12-13T04:33:48.314Z,78217.06
2022-12-13T04:36:32.140Z,78224.78
2022-12-13T04:39:03.348Z,78228.63
2022-12-13T04:41:33.881Z,78217.06
2022-12-13T04:44:01.733Z,78209.34
2022-12-13T04:46:28.324Z,78228.63
2022-12-13T04:48:54.891Z,78234.41
2022-12-13T04:51:21.440Z,78236.34
2022-12-13T04:53:47.942Z,78224.78
2022-12-13T04:56:14.490Z,78242.13
2022-12-13T04:58:41.087Z,78261.41
2022-12-13T05:01:08.372Z,78274.91
2022-12-13T05:03:35.581Z,78278.75
2022-12-13T05:06:26.334Z,78274.91
2022-12-13T05:08:54.458Z,78278.75
2022-12-13T05:11:22.994Z,78282.59
2022-12-13T05:13:49.687Z,78278.75
2022-12-13T05:16:16.312Z,78286.47
2022-12-13T05:18:42.890Z,78286.47
2022-12-13T05:21:10.810Z,78298.03
2022-12-13T05:23:37.843Z,78288.38
2022-12-13T05:26:04.624Z,78294.19
2022-12-13T05:28:31.858Z,78286.47
2022-12-13T05:31:05.973Z,78292.25
2022-12-13T05:33:50.547Z,78292.25
2022-12-13T05:36:17.129Z,78301.88
2022-12-13T05:38:43.804Z,78294.19
2022-12-13T05:41:15.132Z,78307.66
2022-12-13T05:43:42.110Z,78317.31
2022-12-13T05:46:09.985Z,78328.88
2022-12-13T05:48:36.670Z,78340.44
2022-12-13T05:51:09.880Z,78336.59
2022-12-13T05:53:38.032Z,78342.38
2022-12-13T05:56:04.802Z,78340.44
2022-12-13T05:58:35.802Z,78348.16
2022-12-13T06:01:10.745Z,78352.00
2022-12-13T06:03:37.784Z,78352.00
2022-12-13T06:06:05.345Z,78355.88
2022-12-13T06:08:32.278Z,78365.50
2022-12-13T06:11:11.078Z,78375.16
2022-12-13T06:13:43.488Z,78375.16
2022-12-13T06:16:22.965Z,78382.88
2022-12-13T06:18:54.475Z,78382.88
2022-12-13T06:21:25.850Z,78386.72
2022-12-13T06:23:52.431Z,78390.56
2022-12-13T06:26:18.918Z,78390.56
2022-12-13T06:28:45.510Z,78390.56
2022-12-13T06:31:12.083Z,78390.56
2022-12-13T06:33:39.020Z,78390.56
2022-12-13T06:36:05.907Z,78382.88
2022-12-13T06:38:32.648Z,78398.28
2022-12-13T06:41:13.527Z,78411.78
2022-12-13T06:43:47.468Z,78402.16
2022-12-13T06:46:15.200Z,78386.72
2022-12-13T06:48:42.080Z,78379.00
2022-12-13T06:51:08.887Z,78363.59
2022-12-13T06:53:37.403Z,78352.00
2022-12-13T06:56:05.316Z,78334.66
2022-12-13T06:58:32.646Z,78309.59
2022-12-13T07:01:24.058Z,78290.31
2022-12-13T07:03:51.717Z,78255.63
2022-12-13T07:06:21.810Z,78228.63
2022-12-13T07:08:49.464Z,78201.63
2022-12-13T07:11:20.250Z,78180.44
2022-12-13T07:13:47.089Z,78159.22
2022-12-13T07:16:14.229Z,78141.88
2022-12-13T07:18:40.920Z,78128.38
2022-12-13T07:21:08.366Z,78105.22
2022-12-13T07:23:48.002Z,78089.81
2022-12-13T07:26:21.577Z,78066.69
2022-12-13T07:28:55.079Z,78049.31
2022-12-13T07:31:22.786Z,78031.97
2022-12-13T07:33:49.559Z,78014.63
2022-12-13T07:36:17.810Z,77997.28
2022-12-13T07:38:45.176Z,77981.84
2022-12-13T07:41:12.111Z,77958.72
2022-12-13T07:43:38.682Z,77951.00
2022-12-13T07:46:06.237Z,77931.72
2022-12-13T07:48:33.447Z,77908.59
2022-12-13T07:51:04.416Z,77889.31
2022-12-13T07:53:33.344Z,77879.69
2022-12-13T07:56:04.227Z,77870.03
2022-12-13T07:58:31.581Z,77858.47
2022-12-13T08:01:02.066Z,77846.91
2022-12-13T08:03:29.735Z,77843.06
2022-12-13T08:06:04.069Z,77843.06
2022-12-13T08:08:31.900Z,77819.91
2022-12-13T08:11:06.041Z,77808.34
2022-12-13T08:13:32.974Z,77800.66
2022-12-13T08:16:01.008Z,77777.50
2022-12-13T08:18:30.842Z,77792.94
2022-12-13T08:20:58.186Z,77789.06
2022-12-13T08:23:24.721Z,77773.66
2022-12-13T08:25:54.571Z,77764.03
2022-12-13T08:28:22.080Z,77754.38
2022-12-13T08:30:49.051Z,77725.47
2022-12-13T08:33:15.585Z,77715.81
2022-12-13T08:35:42.274Z,77688.84
2022-12-13T08:38:09.164Z,77692.69
2022-12-13T08:40:36.175Z,77686.91
2022-12-13T08:43:03.004Z,77696.53
2022-12-13T08:45:30.569Z,77704.25
2022-12-13T08:47:57.879Z,77700.41
2022-12-13T08:50:24.445Z,77681.13
2022-12-13T08:52:51.625Z,77717.75
2022-12-13T08:55:23.792Z,77719.69
2022-12-13T08:58:01.160Z,77673.41
2022-12-13T09:00:28.220Z,77673.41
2022-12-13T09:03:03.405Z,77673.41
2022-12-13T09:05:33.720Z,77677.28
2022-12-13T09:08:24.265Z,77673.41
2022-12-13T09:11:01.138Z,77692.69
2022-12-13T09:13:43.806Z,77659.91
2022-12-13T09:16:14.430Z,77673.41
2022-12-13T09:18:54.946Z,77686.91
2022-12-13T09:21:31.521Z,77694.63
2022-12-13T09:24:01.788Z,77667.63
2022-12-13T09:26:28.813Z,77654.13
2022-12-13T09:28:55.443Z,77642.56
2022-12-13T09:31:22.115Z,77644.50
2022-12-13T09:33:48.656Z,77671.50
2022-12-13T09:36:17.090Z,77621.38
2022-12-13T09:38:43.646Z,77625.22
2022-12-13T09:41:28.800Z,77609.81
2022-12-13T09:44:31.494Z,77584.75
2022-12-13T09:47:01.515Z,77580.91
2022-12-13T09:49:28.139Z,77615.59
2022-12-13T09:52:11.379Z,77577.03
2022-12-13T09:54:47.695Z,77536.56
2022-12-13T09:57:32.002Z,77515.34
2022-12-13T10:00:01.669Z,77532.69
2022-12-13T10:02:42.022Z,77505.72
2022-12-13T10:05:35.702Z,77517.28
2022-12-13T10:08:37.576Z,77519.22
2022-12-13T10:11:04.243Z,77561.63
2022-12-13T10:13:40.209Z,77569.31
2022-12-13T10:16:09.324Z,77553.91
2022-12-13T10:18:40.995Z,77565.47
2022-12-13T10:21:18.493Z,77557.75
2022-12-13T10:24:22.425Z,77530.78
2022-12-13T10:26:36.601Z,77557.75
2022-12-13T10:29:04.901Z,77542.34
2022-12-13T10:31:38.996Z,77526.91
2022-12-13T10:34:05.624Z,77546.19
2022-12-13T10:36:34.406Z,77557.75
2022-12-13T10:39:01.566Z,77542.34
2022-12-13T10:41:36.364Z,77525.00
2022-12-13T10:44:12.250Z,77511.50
2022-12-13T10:46:40.287Z,77511.50
2022-12-13T10:49:16.507Z,77521.13
2022-12-13T10:51:43.162Z,77482.59
2022-12-13T10:54:48.199Z,77496.06
2022-12-13T10:57:16.549Z,77476.81
2022-12-13T10:59:44.300Z,77476.81
2022-12-13T11:02:29.374Z,77476.81
2022-12-13T11:04:58.161Z,77469.09
2022-12-13T11:07:27.605Z,77465.25
2022-12-13T11:09:54.242Z,77469.09
2022-12-13T11:12:22.412Z,77467.16
2022-12-13T11:14:59.720Z,77472.94
2022-12-13T11:17:27.317Z,77449.81
2022-12-13T11:19:56.164Z,77465.25
2022-12-13T11:22:29.460Z,77455.59
2022-12-13T11:25:01.558Z,77457.53
2022-12-13T11:27:30.912Z,77461.38
2022-12-13T11:30:04.453Z,77447.88
2022-12-13T11:32:59.199Z,77422.84
2022-12-13T11:35:49.283Z,77407.41
2022-12-13T11:38:22.744Z,77411.25
2022-12-13T11:40:53.235Z,77426.69
2022-12-13T11:43:33.191Z,77418.97
2022-12-13T11:46:03.016Z,77403.56
2022-12-13T11:48:32.831Z,77422.84
2022-12-13T11:51:01.180Z,77395.84
2022-12-13T11:53:34.418Z,77388.13
2022-12-13T11:56:19.773Z,77399.69
2022-12-13T11:59:16.099Z,77393.91
2022-12-13T12:01:41.833Z,77380.44
2022-12-13T12:04:08.415Z,77376.56
2022-12-13T12:06:43.795Z,77384.28
2022-12-13T12:09:15.672Z,77388.13
2022-12-13T12:11:46.313Z,77399.69
2022-12-13T12:14:17.077Z,77380.44
2022-12-13T12:16:47.526Z,77388.13
2022-12-13T12:19:16.212Z,77388.13
2022-12-13T12:22:13.314Z,77376.56
2022-12-13T12:24:46.586Z,77372.72
2022-12-13T12:27:39.290Z,77365.00
2022-12-13T12:30:24.439Z,77374.66
2022-12-13T12:32:53.963Z,77376.56
2022-12-13T12:35:26.896Z,77372.72
2022-12-13T12:38:03.783Z,77376.56
2022-12-13T12:43:48.140Z,77386.22
2022-12-13T12:46:17.865Z,77388.13
2022-12-13T12:49:01.704Z,77395.84
2022-12-13T12:51:54.906Z,77401.63
2022-12-13T12:54:32.743Z,77392.00
2022-12-13T12:57:15.284Z,77403.56
2022-12-13T12:59:55.480Z,77392.00
2022-12-13T13:02:42.189Z,77395.84
2022-12-13T13:05:18.137Z,77399.69
2022-12-13T13:07:51.377Z,77403.56
2022-12-13T13:10:26.914Z,77415.13
2022-12-13T13:13:12.154Z,77422.84
2022-12-13T13:15:39.825Z,77436.31
2022-12-13T13:18:26.969Z,77434.41
2022-12-13T13:21:12.864Z,77442.09
2022-12-13T13:23:41.007Z,77442.09
2022-12-13T13:26:30.332Z,77442.09
2022-12-13T13:29:27.846Z,77449.81
2022-12-13T13:32:01.420Z,77453.69
2022-12-13T13:34:28.939Z,77453.69
2022-12-13T13:36:57.333Z,77457.53
2022-12-13T13:39:27.126Z,77461.38
2022-12-13T13:41:57.994Z,77461.38
2022-12-13T13:44:35.450Z,77461.38
2022-12-13T13:47:14.222Z,77467.16
2022-12-13T13:50:02.019Z,77455.59
2022-12-13T13:52:44.352Z,77461.38
2022-12-13T13:55:25.911Z,77465.25
2022-12-13T13:58:11.621Z,77469.09
2022-12-13T14:00:56.949Z,77474.88
2022-12-13T14:03:51.694Z,77490.28
2022-12-13T14:06:21.433Z,77496.06
2022-12-13T14:09:03.704Z,77507.66
2022-12-13T14:11:45.349Z,77501.84
2022-12-13T14:14:30.444Z,77505.72
2022-12-13T14:17:11.484Z,77511.50
2022-12-13T14:20:04.343Z,77513.44
2022-12-13T14:22:37.078Z,77517.28
2022-12-13T14:25:23.638Z,77525.00
2022-12-13T14:27:58.095Z,77534.63
2022-12-13T14:30:27.968Z,77546.19
2022-12-13T14:32:55.752Z,77563.53
2022-12-13T14:35:27.373Z,77569.31
2022-12-13T14:37:59.158Z,77573.19
2022-12-13T14:40:30.721Z,77577.03
2022-12-13T14:42:57.530Z,77588.59
2022-12-13T14:45:33.015Z,77590.53
2022-12-13T14:48:00.708Z,77600.16
2022-12-13T14:50:28.902Z,77611.72
2022-12-13T14:52:56.206Z,77609.81
2022-12-13T14:55:24.962Z,77619.44
2022-12-13T14:57:53.329Z,77623.31
2022-12-13T15:00:24.259Z,77631.00
2022-12-13T15:02:52.093Z,77634.88
2022-12-13T15:05:29.030Z,77638.72
2022-12-13T15:07:56.552Z,77648.34
2022-12-13T15:10:24.499Z,77654.13
2022-12-13T15:12:54.644Z,77658.00
2022-12-13T15:15:21.201Z,77677.28
2022-12-13T15:17:47.699Z,77688.84
2022-12-13T15:20:24.871Z,77698.47
2022-12-13T15:23:06.033Z,77700.41
2022-12-13T15:25:35.819Z,77708.13
2022-12-13T15:28:03.704Z,77692.69
2022-12-13T15:30:32.044Z,77698.47
2022-12-13T15:33:17.850Z,77708.13
2022-12-13T15:35:48.050Z,77715.81
2022-12-13T15:38:28.178Z,77704.25
2022-12-13T15:40:55.503Z,77715.81
2022-12-13T15:43:24.208Z,77723.53
2022-12-13T15:45:52.605Z,77713.91
2022-12-13T15:48:35.083Z,77704.25
2022-12-13T15:51:29.616Z,77700.41
2022-12-13T15:54:03.504Z,77715.81
2022-12-13T15:56:34.761Z,77738.97
2022-12-13T15:59:01.785Z,77737.03
2022-12-13T16:01:30.218Z,77727.38
2022-12-13T16:03:57.523Z,77740.88
2022-12-13T16:06:25.862Z,77750.53
2022-12-13T16:09:01.430Z,77754.38
2022-12-13T16:11:30.313Z,77754.38
2022-12-13T16:14:25.767Z,77754.38
2022-12-13T16:16:53.532Z,77754.38
2022-12-13T16:19:20.364Z,77762.09
2022-12-13T16:21:47.001Z,77771.72
2022-12-13T16:24:13.563Z,77783.28
2022-12-13T16:26:43.858Z,77792.94
2022-12-13T16:29:13.163Z,77794.88
2022-12-13T16:31:39.756Z,77808.34
2022-12-13T16:34:07.174Z,77823.78
2022-12-13T16:36:34.115Z,77831.50
2022-12-13T16:39:00.824Z,77835.34
2022-12-13T16:41:27.659Z,77835.34
2022-12-13T16:43:58.688Z,77835.34
2022-12-13T16:47:17.431Z,77850.75
2022-12-13T16:49:19.530Z,77843.06
2022-12-13T16:51:48.474Z,77839.19
2022-12-13T16:54:15.267Z,77846.91
2022-12-13T16:56:41.927Z,77850.75
2022-12-13T16:59:11.618Z,77850.75
2022-12-13T17:01:38.225Z,77862.34
2022-12-13T17:04:11.764Z,77870.03
2022-12-13T17:06:40.808Z,77873.91
2022-12-13T17:09:07.850Z,77871.97
2022-12-13T17:11:35.035Z,77881.59
2022-12-13T17:14:01.963Z,77893.19
2022-12-13T17:16:28.617Z,77897.03
2022-12-13T17:18:55.810Z,77902.81
2022-12-13T17:21:23.770Z,77912.44
2022-12-13T17:23:57.638Z,77916.31
2022-12-13T17:26:24.300Z,77931.72
2022-12-13T17:28:51.087Z,77929.81
2022-12-13T17:31:18.733Z,77927.88
2022-12-13T17:33:45.893Z,77939.44
2022-12-13T17:36:14.078Z,77935.59
2022-12-13T17:38:43.852Z,77935.59
2022-12-13T17:41:10.469Z,77933.66
2022-12-13T17:43:37.475Z,77933.66
2022-12-13T17:46:05.516Z,77941.38
2022-12-13T17:48:39.028Z,77947.16
2022-12-13T17:51:08.192Z,77945.22
2022-12-13T17:53:35.793Z,77941.38
2022-12-13T17:56:03.602Z,77939.44
2022-12-13T17:58:32.163Z,77939.44
2022-12-13T18:00:59.387Z,77927.88
2022-12-13T18:03:26.767Z,77931.72
2022-12-13T18:05:59.403Z,77920.16
2022-12-13T18:08:26.539Z,77920.16
2022-12-13T18:11:15.745Z,77918.25
2022-12-13T18:13:41.623Z,77929.81
2022-12-13T18:16:09.170Z,77935.59
2022-12-13T18:18:35.885Z,77945.22
2022-12-13T18:21:04.089Z,77935.59
2022-12-13T18:23:30.681Z,77943.31
2022-12-13T18:26:01.647Z,77947.16
2022-12-13T18:28:29.003Z,77951.00
2022-12-13T18:30:59.314Z,77939.44
2022-12-13T18:33:26.359Z,77943.31
2022-12-13T18:35:53.463Z,77943.31
2022-12-13T18:38:20.120Z,77939.44
2022-12-13T18:40:46.882Z,77947.16
2022-12-13T18:43:13.431Z,77943.31
2022-12-13T18:45:40.574Z,77947.16
2022-12-13T18:48:07.152Z,77949.09
2022-12-13T18:50:34.262Z,77966.44
2022-12-13T18:53:00.855Z,77962.56
2022-12-13T18:55:27.429Z,77978.00
2022-12-13T18:57:54.086Z,77966.44
2022-12-13T19:00:20.678Z,77968.34
2022-12-13T19:02:47.272Z,77958.72
2022-12-13T19:05:13.903Z,77951.00
2022-12-13T19:07:40.413Z,77952.94
2022-12-13T19:10:07.065Z,77933.66
2022-12-13T19:12:34.986Z,77935.59
2022-12-13T19:15:02.905Z,77935.59
2022-12-13T19:17:29.680Z,77927.88
2022-12-13T19:19:56.481Z,77933.66
2022-12-13T19:22:23.237Z,77943.31
2022-12-13T19:24:49.808Z,77939.44
2022-12-13T19:27:16.373Z,77949.09
2022-12-13T19:29:42.924Z,77943.31
2022-12-13T19:32:09.462Z,77943.31
2022-12-13T19:34:36.028Z,77931.72
2022-12-13T19:37:06.327Z,77929.81
2022-12-13T19:39:33.297Z,77939.44
2022-12-13T19:41:59.825Z,77947.16
2022-12-13T19:44:26.422Z,77962.56
2022-12-13T19:46:53.406Z,77952.94
2022-12-13T19:49:20.559Z,77970.28
2022-12-13T19:51:47.135Z,77978.00
2022-12-13T19:54:13.698Z,77981.84
2022-12-13T19:56:40.286Z,77997.28
2022-12-13T19:59:06.896Z,77960.66
2022-12-13T20:01:33.619Z,77954.88
2022-12-13T20:04:00.422Z,77958.72
2022-12-13T20:06:26.972Z,77943.31
2022-12-13T20:08:53.891Z,77927.88
2022-12-13T20:11:22.141Z,77918.25
2022-12-13T20:13:49.549Z,77912.44
2022-12-13T20:16:17.288Z,77897.03
2022-12-13T20:18:43.998Z,77904.75
2022-12-13T20:21:12.903Z,77904.75
2022-12-13T20:23:40.733Z,77904.75
2022-12-13T20:26:08.912Z,77897.03
2022-12-13T20:28:35.443Z,77904.75
2022-12-13T20:31:05.123Z,77912.44
2022-12-13T20:33:33.390Z,77918.25
2022-12-13T20:36:24.606Z,77914.38
2022-12-13T20:38:52.740Z,77920.16
2022-12-13T20:41:19.329Z,77914.38
2022-12-13T20:43:48.219Z,77918.25
2022-12-13T20:46:15.479Z,77925.94
2022-12-13T20:48:43.345Z,77929.81
2022-12-13T20:51:11.503Z,77939.44
2022-12-13T20:53:39.605Z,77941.38
2022-12-13T20:56:06.851Z,77954.88
2022-12-13T20:58:38.234Z,77954.88
2022-12-13T21:01:09.232Z,77954.88
2022-12-13T21:03:35.692Z,77958.72
2022-12-13T21:06:02.318Z,77958.72
2022-12-13T21:08:47.560Z,77966.44
2022-12-13T21:11:26.163Z,77966.44
2022-12-13T21:14:12.357Z,77958.72
2022-12-13T21:16:45.018Z,77960.66
2022-12-13T21:19:13.351Z,77954.88
2022-12-13T21:21:40.202Z,77964.50
2022-12-13T21:24:07.321Z,77962.56
2022-12-13T21:26:35.909Z,77974.13
2022-12-13T21:29:04.836Z,77978.00
2022-12-13T21:31:31.496Z,77981.84
2022-12-13T21:34:00.194Z,77981.84
2022-12-13T21:36:28.071Z,77981.84
2022-12-13T21:38:58.991Z,77985.72
2022-12-13T21:41:26.378Z,77999.19
2022-12-13T21:43:53.697Z,78001.13
2022-12-13T21:46:25.966Z,78005.00
2022-12-13T21:48:57.365Z,78003.06
2022-12-13T21:51:25.030Z,78001.13
2022-12-13T21:53:51.920Z,77995.34
2022-12-13T21:56:39.464Z,78001.13
2022-12-13T21:59:16.213Z,78008.84
2022-12-13T22:02:04.588Z,78024.25
2022-12-13T22:04:31.346Z,78024.25
2022-12-13T22:06:57.896Z,78031.97
2022-12-13T22:09:24.523Z,78028.13
2022-12-13T22:11:51.190Z,78024.25
2022-12-13T22:14:18.188Z,78035.84
2022-12-13T22:16:44.714Z,78043.53
2022-12-13T22:19:14.586Z,78037.75
2022-12-13T22:21:41.468Z,78031.97
2022-12-13T22:24:08.799Z,78030.06
2022-12-13T22:26:36.301Z,78028.13
2022-12-13T22:29:02.832Z,78028.13
2022-12-13T22:31:29.941Z,78028.13
2022-12-13T22:33:59.698Z,78028.13
2022-12-13T22:36:26.286Z,78010.78
2022-12-13T22:38:53.229Z,78016.56
2022-12-13T22:41:19.838Z,78014.63
2022-12-13T22:43:46.504Z,78006.91
2022-12-13T22:46:16.781Z,78016.56
2022-12-13T22:48:43.327Z,78012.69
2022-12-13T22:51:14.099Z,78008.84
2022-12-13T22:53:41.519Z,78005.00
2022-12-13T22:56:09.826Z,77997.28
2022-12-13T22:58:37.325Z,77995.34
2022-12-13T23:01:18.335Z,77985.72
2022-12-13T23:03:45.387Z,77993.41
2022-12-13T23:06:13.944Z,78001.13
2022-12-13T23:08:43.534Z,77970.28
2022-12-13T23:11:29.699Z,77966.44
2022-12-13T23:13:57.460Z,77943.31
2022-12-13T23:16:24.987Z,77939.44
2022-12-13T23:19:05.256Z,77939.44
2022-12-13T23:21:40.469Z,77941.38
2022-12-13T23:24:07.164Z,77933.66
2022-12-13T23:26:33.985Z,77929.81
2022-12-13T23:29:01.953Z,77931.72
2022-12-13T23:31:29.440Z,77900.88
2022-12-13T23:33:56.023Z,77866.19
2022-12-13T23:36:23.398Z,77864.25
2022-12-13T23:38:50.538Z,77862.34
2022-12-13T23:41:23.611Z,77862.34
2022-12-13T23:43:51.385Z,77866.19
2022-12-13T23:46:19.445Z,77846.91
2022-12-13T23:48:46.502Z,77831.50
2022-12-13T23:51:14.241Z,77825.72
2022-12-13T23:53:41.008Z,77823.78
2022-12-13T23:56:08.887Z,77831.50
2022-12-13T23:58:36.715Z,77827.63
